Time;durP1;ratioP1;P1;durP2;ratioP2;P2;SDS_P1;SDS_P2;PMS_P1;PMS_P2;Temp;Humidity;BMP_temperature;BMP_pressure;BME280_temperature;BME280_humidity;BME280_pressure;Samples;Min_cycle;Max_cycle;Signal;HPM_P1;HPM_P2
2022/06/02 00:02:41;;;;;;;9.50;6.87;;;11.10;91.60;;;;;;4936519;29;20028;-80
2022/06/02 00:05:13;;;;;;;8.90;5.97;;;11.10;91.60;;;;;;4925769;29;20385;-80
2022/06/02 00:07:59;;;;;;;9.48;5.97;;;11.10;91.80;;;;;;4935142;29;20023;-80
2022/06/02 00:10:56;;;;;;;10.60;6.50;;;11.10;91.90;;;;;;4919722;29;20023;-80
2022/06/02 00:13:37;;;;;;;9.90;6.65;;;11.10;92.10;;;;;;4921126;29;20028;-79
2022/06/02 00:16:13;;;;;;;11.00;7.20;;;11.10;92.10;;;;;;4920889;29;20023;-79
2022/06/02 00:18:51;;;;;;;12.52;7.10;;;11.10;92.20;;;;;;4919905;29;20115;-79
2022/06/02 00:21:25;;;;;;;10.63;7.25;;;11.00;92.30;;;;;;4936635;29;20074;-79
2022/06/02 00:24:07;;;;;;;9.32;6.93;;;11.00;92.50;;;;;;4920916;29;20042;-80
2022/06/02 00:26:45;;;;;;;10.63;7.20;;;11.00;92.60;;;;;;4922024;29;20020;-79
2022/06/02 00:29:20;;;;;;;10.77;7.72;;;11.00;92.80;;;;;;4952843;28;20073;-80
2022/06/02 00:32:14;;;;;;;11.35;7.05;;;11.00;92.90;;;;;;4955969;28;20106;-80
2022/06/02 00:34:50;;;;;;;10.13;7.20;;;11.00;93.00;;;;;;4957984;28;20055;-80
2022/06/02 00:37:21;;;;;;;10.43;7.40;;;10.90;93.00;;;;;;4954556;28;20028;-80
2022/06/02 00:39:49;;;;;;;13.60;8.77;;;11.00;93.20;;;;;;4954955;29;20468;-80
2022/06/02 00:42:23;;;;;;;12.37;8.03;;;10.90;93.20;;;;;;4954806;29;20368;-80
2022/06/02 00:45:08;;;;;;;11.90;8.70;;;10.90;93.30;;;;;;4954860;29;20054;-80
2022/06/02 00:47:46;;;;;;;10.63;8.43;;;10.90;93.40;;;;;;4953671;28;20498;-79
2022/06/02 00:50:27;;;;;;;12.23;9.13;;;10.80;93.50;;;;;;4938004;29;20374;-78
2022/06/02 00:53:20;;;;;;;12.40;9.63;;;10.80;93.60;;;;;;4939854;28;20343;-78
2022/06/02 00:59:08;;;;;;;12.33;8.53;;;10.80;93.80;;;;;;4968728;28;20121;-78
2022/06/02 01:01:35;;;;;;;13.00;8.73;;;10.70;93.80;;;;;;4974292;28;20459;-78
2022/06/02 01:04:05;;;;;;;13.17;8.20;;;10.70;93.90;;;;;;4972709;28;20026;-78
2022/06/02 01:06:41;;;;;;;12.13;9.70;;;10.70;94.00;;;;;;4972897;28;20023;-80
2022/06/02 01:09:35;;;;;;;12.23;8.83;;;10.70;94.20;;;;;;4956739;28;20463;-80
2022/06/02 01:12:09;;;;;;;13.67;9.47;;;10.70;94.30;;;;;;4956836;28;20054;-80
2022/06/02 01:15:06;;;;;;;12.40;9.53;;;10.60;94.30;;;;;;4969452;28;20638;-81
2022/06/02 01:17:55;;;;;;;15.37;9.97;;;10.60;94.40;;;;;;4954490;28;20157;-81
2022/06/02 01:20:36;;;;;;;15.00;11.53;;;10.60;94.50;;;;;;4973977;28;20046;-81
2022/06/02 01:23:04;;;;;;;14.43;10.57;;;10.50;94.70;;;;;;4973868;28;20030;-81
2022/06/02 01:25:56;;;;;;;13.57;10.63;;;10.50;94.80;;;;;;4973600;28;20450;-81
2022/06/02 01:28:44;;;;;;;14.87;10.67;;;10.50;94.80;;;;;;4972687;28;20074;-81
2022/06/02 01:31:12;;;;;;;16.83;11.57;;;10.50;94.90;;;;;;4956620;28;20082;-80
2022/06/02 01:33:56;;;;;;;14.40;11.30;;;10.40;94.90;;;;;;4959985;28;20078;-79
2022/06/02 01:36:23;;;;;;;15.82;10.95;;;10.40;95.00;;;;;;4976303;28;20023;-80
2022/06/02 01:39:27;;;;;;;14.43;11.27;;;10.40;95.10;;;;;;4977484;28;20069;-80
2022/06/02 01:42:02;;;;;;;13.60;10.60;;;10.40;95.30;;;;;;4920919;28;20877;-80
2022/06/02 01:44:45;;;;;;;19.97;11.27;;;10.30;95.30;;;;;;4959844;28;20034;-80
2022/06/02 01:47:29;;;;;;;15.07;11.60;;;10.30;95.40;;;;;;4977083;28;20375;-80
2022/06/02 01:50:16;;;;;;;14.82;11.85;;;10.30;95.50;;;;;;4976893;28;20356;-80
2022/06/02 01:53:02;;;;;;;15.17;11.50;;;10.30;95.60;;;;;;4976909;28;20027;-80
2022/06/02 01:55:36;;;;;;;15.63;11.97;;;10.30;95.70;;;;;;4977290;28;20117;-80
2022/06/02 01:58:07;;;;;;;16.58;12.10;;;10.30;95.70;;;;;;4977051;28;20406;-80
2022/06/02 02:00:34;;;;;;;18.00;12.87;;;10.20;95.80;;;;;;4967953;28;20039;-80
2022/06/02 02:03:20;;;;;;;17.47;13.03;;;10.20;95.90;;;;;;4975899;28;20031;-80
2022/06/02 02:06:03;;;;;;;15.73;12.40;;;10.20;96.00;;;;;;4962890;28;20046;-80
2022/06/02 02:08:28;;;;;;;17.90;11.97;;;10.20;96.10;;;;;;4976828;28;20037;-80
2022/06/02 02:10:59;;;;;;;19.13;13.57;;;10.20;96.20;;;;;;4975751;28;20113;-80
2022/06/02 02:13:55;;;;;;;17.33;13.70;;;10.10;96.30;;;;;;4976809;28;20042;-79
2022/06/02 02:16:44;;;;;;;20.03;13.63;;;10.20;96.40;;;;;;4975986;28;20053;-79
2022/06/02 02:19:15;;;;;;;19.50;13.43;;;10.10;96.50;;;;;;4991746;23;20046;-76
2022/06/02 02:22:11;;;;;;;17.37;12.30;;;10.10;96.60;;;;;;5015519;28;20066;-77
2022/06/02 02:25:01;;;;;;;18.20;13.30;;;10.10;96.70;;;;;;4997852;28;20029;-77
2022/06/02 02:28:02;;;;;;;18.03;13.93;;;10.10;96.70;;;;;;5015200;28;20068;-76
2022/06/02 02:30:28;;;;;;;18.70;13.47;;;10.10;96.80;;;;;;5015561;28;20029;-77
2022/06/02 02:33:04;;;;;;;18.90;13.60;;;10.10;96.80;;;;;;4998058;28;20108;-76
2022/06/02 02:35:41;;;;;;;20.23;14.27;;;10.10;96.90;;;;;;4997878;28;20030;-76
2022/06/02 02:38:18;;;;;;;18.13;13.87;;;10.00;96.90;;;;;;4997421;28;20348;-77
2022/06/02 02:40:51;;;;;;;18.03;13.37;;;10.00;97.00;;;;;;5014107;28;20033;-76
2022/06/02 02:43:26;;;;;;;17.83;13.98;;;9.90;97.00;;;;;;4998015;28;20065;-76
2022/06/02 02:46:01;;;;;;;19.67;14.67;;;9.90;97.10;;;;;;4997843;28;20073;-76
2022/06/02 02:48:54;;;;;;;20.00;14.70;;;9.90;97.20;;;;;;5015163;28;20033;-78
2022/06/02 02:51:21;;;;;;;17.73;13.57;;;9.90;97.30;;;;;;4997537;28;20113;-76
2022/06/02 02:54:01;;;;;;;19.93;14.00;;;9.90;97.40;;;;;;4997518;28;20022;-78
2022/06/02 02:56:35;;;;;;;19.30;13.47;;;9.90;97.50;;;;;;5015196;28;20022;-77
2022/06/02 02:59:22;;;;;;;17.00;12.87;;;9.90;97.50;;;;;;4997408;28;20373;-79
2022/06/02 03:01:48;;;;;;;18.00;12.83;;;9.90;97.50;;;;;;5014694;28;20030;-77
2022/06/02 03:04:25;;;;;;;16.93;13.47;;;9.90;97.50;;;;;;5014812;28;20457;-78
2022/06/02 03:06:54;;;;;;;20.73;14.30;;;10.00;97.50;;;;;;4997254;28;20100;-77
2022/06/02 03:09:52;;;;;;;18.00;13.77;;;9.90;97.50;;;;;;4965936;28;20370;-76
2022/06/02 03:12:46;;;;;;;20.97;14.17;;;9.80;97.50;;;;;;4975028;28;20061;-76
2022/06/02 03:15:28;;;;;;;20.60;15.20;;;9.90;97.60;;;;;;4997270;28;20079;-76
2022/06/02 03:18:06;;;;;;;21.70;15.13;;;9.80;97.60;;;;;;5017120;28;20060;-76
2022/06/02 03:21:01;;;;;;;24.73;16.07;;;9.80;97.60;;;;;;5032385;28;20041;-77
2022/06/02 03:23:59;;;;;;;20.87;14.80;;;9.80;97.60;;;;;;5015993;28;20053;-77
2022/06/02 03:26:48;;;;;;;24.00;14.80;;;9.80;97.70;;;;;;5006660;28;20116;-78
2022/06/02 03:29:38;;;;;;;20.03;14.47;;;9.80;97.80;;;;;;5016088;28;20024;-76
2022/06/02 03:32:28;;;;;;;20.37;14.43;;;9.80;97.80;;;;;;5034144;28;20029;-77
2022/06/02 03:35:21;;;;;;;20.47;15.53;;;9.80;97.90;;;;;;5034294;28;20473;-76
2022/06/02 03:38:02;;;;;;;21.37;14.70;;;9.70;97.90;;;;;;5016051;28;20022;-76
2022/06/02 03:41:10;;;;;;;19.27;13.60;;;9.80;98.00;;;;;;5016170;28;20087;-76
2022/06/02 03:43:57;;;;;;;18.03;13.47;;;9.70;98.00;;;;;;5033931;28;20021;-77
2022/06/02 03:46:53;;;;;;;19.63;13.83;;;9.70;98.00;;;;;;5033943;28;20013;-76
2022/06/02 03:49:37;;;;;;;18.37;13.40;;;9.70;98.00;;;;;;5016505;28;20362;-76
2022/06/02 03:52:06;;;;;;;19.10;13.55;;;9.70;98.00;;;;;;5016353;28;20017;-76
2022/06/02 03:55:02;;;;;;;18.27;13.90;;;9.70;98.10;;;;;;5033234;28;20021;-77
2022/06/02 03:57:43;;;;;;;22.57;14.13;;;9.70;98.10;;;;;;5032136;28;20109;-77
2022/06/02 04:00:15;;;;;;;18.43;13.93;;;9.70;98.10;;;;;;5003755;28;20025;-78
2022/06/02 04:02:47;;;;;;;19.43;14.47;;;9.70;98.20;;;;;;4996420;28;20025;-77
2022/06/02 04:05:50;;;;;;;21.20;14.53;;;9.70;98.50;;;;;;5013979;28;20120;-76
2022/06/02 04:08:39;;;;;;;20.93;14.40;;;9.70;98.30;;;;;;4996109;28;20485;-76
2022/06/02 04:11:22;;;;;;;17.57;13.10;;;9.80;98.40;;;;;;4996059;28;20025;-77
2022/06/02 04:14:16;;;;;;;20.37;14.67;;;9.80;98.30;;;;;;5013534;28;20469;-77
2022/06/02 04:17:01;;;;;;;21.83;14.77;;;9.80;98.30;;;;;;4996110;28;20018;-77
2022/06/02 04:23:17;;;;;;;19.20;14.10;;;9.80;98.40;;;;;;5013517;28;20052;-76
2022/06/02 04:25:56;;;;;;;21.20;14.80;;;9.90;98.50;;;;;;5013659;28;20025;-77
2022/06/02 04:28:46;;;;;;;20.77;15.63;;;9.90;98.50;;;;;;5013498;28;20025;-77
2022/06/02 04:31:48;;;;;;;21.87;14.53;;;10.00;98.50;;;;;;4995717;28;20075;-76
2022/06/02 04:34:31;;;;;;;21.17;16.30;;;10.00;98.50;;;;;;4995974;28;20021;-76
2022/06/02 04:37:18;;;;;;;20.77;15.23;;;10.00;98.50;;;;;;5013565;28;20454;-76
2022/06/02 04:39:59;;;;;;;20.50;15.10;;;10.00;98.50;;;;;;5018122;28;20017;-76
2022/06/02 04:42:52;;;;;;;21.43;15.70;;;10.10;98.50;;;;;;5033015;28;20029;-77
2022/06/02 04:45:28;;;;;;;20.83;15.77;;;10.10;98.50;;;;;;5010179;28;20496;-76
2022/06/02 04:48:26;;;;;;;21.87;16.10;;;10.20;98.50;;;;;;5020016;28;20026;-77
2022/06/02 04:51:20;;;;;;;19.77;14.73;;;10.20;98.50;;;;;;5029686;28;20021;-77
2022/06/02 04:54:04;;;;;;;20.13;15.48;;;10.20;98.40;;;;;;5029427;28;20028;-77
2022/06/02 04:56:47;;;;;;;18.83;15.18;;;10.20;98.40;;;;;;5030569;28;20076;-76
2022/06/02 04:59:28;;;;;;;20.87;16.50;;;10.20;98.30;;;;;;5005223;28;20036;-77
2022/06/02 05:02:30;;;;;;;20.97;16.17;;;10.20;98.40;;;;;;5018304;28;20045;-76
2022/06/02 05:05:18;;;;;;;23.33;17.00;;;10.20;98.40;;;;;;5022402;28;20014;-77
2022/06/02 05:07:59;;;;;;;23.33;17.17;;;10.20;98.40;;;;;;5027652;28;20009;-76
2022/06/02 05:10:31;;;;;;;23.63;16.50;;;10.20;98.40;;;;;;5028807;28;20033;-77
2022/06/02 05:13:14;;;;;;;22.83;17.53;;;10.30;98.50;;;;;;5034011;28;20030;-76
2022/06/02 05:16:06;;;;;;;22.43;17.00;;;10.30;98.50;;;;;;5035362;28;20057;-77
2022/06/02 05:18:50;;;;;;;21.00;16.23;;;10.30;98.60;;;;;;5009377;28;20049;-76
2022/06/02 05:21:16;;;;;;;;;;;10.40;98.70;;;;;;5027864;28;20032;-77
2022/06/02 05:24:00;;;;;;;22.83;15.77;;;10.40;98.80;;;;;;5009867;28;19902;-76
2022/06/02 05:26:53;;;;;;;22.47;16.80;;;10.50;98.70;;;;;;5026913;28;20021;-76
2022/06/02 05:29:46;;;;;;;23.43;16.37;;;10.50;98.70;;;;;;5027544;28;20018;-76
2022/06/02 05:32:20;;;;;;;22.17;17.47;;;10.60;98.80;;;;;;5017513;28;20367;-76
2022/06/02 05:35:13;;;;;;;22.90;17.30;;;10.60;98.80;;;;;;5017503;28;20369;-77
2022/06/02 05:38:00;;;;;;;24.27;18.23;;;10.50;98.70;;;;;;5032336;28;20022;-76
2022/06/02 05:40:41;;;;;;;19.77;15.33;;;10.60;98.80;;;;;;5028201;28;20041;-77
2022/06/02 05:43:38;;;;;;;25.23;17.63;;;10.70;98.90;;;;;;5017127;28;20057;-77
2022/06/02 05:46:03;;;;;;;23.87;18.13;;;10.60;98.90;;;;;;4998882;28;20045;-75
2022/06/02 05:48:41;;;;;;;24.67;17.43;;;10.60;98.90;;;;;;4998638;28;20116;-80
2022/06/02 05:51:38;;;;;;;21.73;17.93;;;10.70;99.00;;;;;;5004310;28;20112;-77
2022/06/02 05:54:33;;;;;;;24.38;17.08;;;10.70;99.00;;;;;;5017807;28;20086;-77
2022/06/02 05:57:16;;;;;;;23.60;17.53;;;10.70;99.00;;;;;;5035727;28;20106;-77
2022/06/02 05:59:42;;;;;;;23.63;17.42;;;10.70;99.10;;;;;;5018160;28;20108;-77
2022/06/02 06:02:37;;;;;;;21.60;16.23;;;10.70;99.20;;;;;;5017824;28;20557;-77
2022/06/02 06:05:38;;;;;;;21.13;16.57;;;10.80;99.40;;;;;;5035377;28;20028;-77
2022/06/02 06:08:29;;;;;;;20.95;16.38;;;10.90;99.50;;;;;;4958515;28;20126;-78
2022/06/02 06:11:32;;;;;;;22.33;16.33;;;10.90;99.60;;;;;;5015912;28;20033;-77
2022/06/02 06:14:23;;;;;;;22.42;15.98;;;11.00;99.70;;;;;;5034092;28;20041;-78
2022/06/02 06:16:59;;;;;;;21.45;16.45;;;11.00;99.80;;;;;;5013854;28;20025;-78
2022/06/02 06:19:24;;;;;;;21.27;16.92;;;11.10;99.90;;;;;;5017534;28;20045;-78
2022/06/02 06:22:24;;;;;;;22.95;17.15;;;11.10;99.90;;;;;;5023063;28;20127;-78
2022/06/02 06:24:55;;;;;;;19.60;15.48;;;11.20;99.90;;;;;;5013345;28;20548;-79
2022/06/02 06:27:53;;;;;;;19.35;14.95;;;11.30;99.90;;;;;;5033268;28;20036;-78
2022/06/02 06:30:56;;;;;;;18.02;14.50;;;11.30;99.90;;;;;;5033956;28;20091;-79
2022/06/02 06:33:50;;;;;;;20.63;14.60;;;11.40;99.90;;;;;;5010682;28;20068;-78
2022/06/02 06:36:52;;;;;;;18.60;13.70;;;11.50;99.90;;;;;;5032163;28;20028;-78
2022/06/02 06:39:33;;;;;;;16.77;12.52;;;11.50;99.90;;;;;;5029237;28;20088;-79
2022/06/02 06:42:14;;;;;;;16.40;12.30;;;11.60;99.90;;;;;;5033938;28;20041;-78
2022/06/02 06:45:00;;;;;;;15.15;12.40;;;11.70;99.90;;;;;;5017412;28;20061;-78
2022/06/02 06:47:43;;;;;;;17.73;11.60;;;11.70;99.90;;;;;;5017132;28;20052;-79
2022/06/02 06:50:18;;;;;;;13.73;10.18;;;11.80;99.90;;;;;;5017133;28;20112;-78
2022/06/02 06:52:54;;;;;;;12.93;9.70;;;11.90;99.90;;;;;;5017136;28;20084;-78
2022/06/02 06:55:52;;;;;;;12.32;9.40;;;12.00;99.90;;;;;;5035103;28;20022;-79
2022/06/02 06:58:54;;;;;;;9.90;7.45;;;12.10;99.90;;;;;;5016873;28;20021;-79
2022/06/02 07:01:31;;;;;;;11.13;6.80;;;12.20;99.90;;;;;;5033429;28;20037;-78
2022/06/02 07:04:24;;;;;;;8.65;5.35;;;12.30;99.90;;;;;;5034776;28;20064;-78
2022/06/02 07:06:56;;;;;;;7.15;4.35;;;12.40;99.90;;;;;;5016782;28;20022;-79
2022/06/02 07:09:43;;;;;;;7.32;4.28;;;12.60;99.90;;;;;;5034338;28;20092;-78
2022/06/02 07:15:30;;;;;;;6.55;3.75;;;12.90;99.90;;;;;;5034761;28;20083;-78
2022/06/02 07:18:33;;;;;;;5.90;3.47;;;13.00;99.90;;;;;;5009427;28;20044;-78
2022/06/02 07:21:19;;;;;;;7.85;3.60;;;13.10;99.90;;;;;;5034058;28;20108;-80
2022/06/02 07:23:56;;;;;;;5.15;3.08;;;13.20;99.70;;;;;;5033276;28;20071;-79
2022/06/02 07:26:28;;;;;;;6.53;2.78;;;13.30;99.50;;;;;;5033148;28;20473;-78
2022/06/02 07:29:03;;;;;;;5.00;2.70;;;13.40;99.30;;;;;;5032584;28;20103;-79
2022/06/02 07:31:46;;;;;;;5.53;3.13;;;13.50;99.10;;;;;;5016399;28;20021;-79
2022/06/02 07:34:46;;;;;;;6.43;3.03;;;13.70;98.90;;;;;;5032895;28;20412;-79
2022/06/02 07:37:26;;;;;;;5.65;2.85;;;13.80;98.50;;;;;;5034267;28;20029;-79
2022/06/02 07:40:06;;;;;;;3.58;2.08;;;13.90;98.30;;;;;;5016278;28;20078;-78
2022/06/02 07:42:56;;;;;;;4.32;2.38;;;13.90;97.90;;;;;;5034525;28;20026;-79
2022/06/02 07:45:46;;;;;;;4.38;2.15;;;14.10;97.60;;;;;;5033929;28;20511;-78
2022/06/02 07:48:47;;;;;;;7.07;2.20;;;14.10;97.30;;;;;;5015872;28;20014;-80
2022/06/02 07:51:32;;;;;;;5.60;1.77;;;14.20;97.00;;;;;;5016505;28;20064;-79
2022/06/02 07:54:16;;;;;;;4.90;1.95;;;14.30;96.70;;;;;;5016111;28;20025;-79
2022/06/02 07:56:57;;;;;;;4.35;1.90;;;14.40;96.30;;;;;;5032250;28;20477;-79
2022/06/02 07:59:38;;;;;;;4.82;2.20;;;14.50;96.10;;;;;;5033893;28;20132;-79
2022/06/02 08:02:10;;;;;;;4.07;2.13;;;14.50;95.80;;;;;;5032364;28;20025;-79
2022/06/02 08:04:55;;;;;;;3.58;2.40;;;14.50;95.60;;;;;;5032388;28;20060;-78
2022/06/02 08:07:50;;;;;;;5.60;2.22;;;14.70;95.40;;;;;;5033712;28;20018;-79
2022/06/02 08:10:28;;;;;;;5.20;2.45;;;14.80;95.10;;;;;;4980360;28;20046;-79
2022/06/02 08:13:11;;;;;;;5.88;2.35;;;14.90;94.90;;;;;;5032344;28;20079;-79
2022/06/02 08:15:59;;;;;;;2.42;1.52;;;15.00;94.50;;;;;;5032291;28;20116;-80
2022/06/02 08:18:55;;;;;;;3.42;2.05;;;15.10;94.20;;;;;;5015374;28;20053;-80
2022/06/02 08:21:46;;;;;;;3.55;1.77;;;15.20;93.90;;;;;;5032794;28;20136;-80
2022/06/02 08:24:42;;;;;;;3.53;1.70;;;15.30;93.60;;;;;;5015750;28;20461;-79
2022/06/02 08:27:22;;;;;;;4.82;1.35;;;15.40;93.60;;;;;;5033414;28;20018;-80
2022/06/02 08:29:56;;;;;;;4.32;1.35;;;15.50;93.00;;;;;;5032074;28;20404;-80
2022/06/02 08:32:25;;;;;;;;;;;15.60;92.60;;;;;;5033662;28;20030;-79
2022/06/02 08:35:10;;;;;;;3.58;1.73;;;15.70;92.10;;;;;;5015637;28;20332;-80
2022/06/02 08:37:57;;;;;;;3.63;1.30;;;15.70;92.10;;;;;;5015414;28;20021;-79
2022/06/02 08:40:41;;;;;;;3.10;1.42;;;15.70;91.60;;;;;;5031608;28;20040;-79
2022/06/02 08:43:38;;;;;;;3.55;1.10;;;15.70;91.20;;;;;;5015366;28;20075;-79
2022/06/02 08:46:16;;;;;;;2.75;0.85;;;15.80;90.50;;;;;;5033355;28;20018;-80
2022/06/02 08:48:50;;;;;;;2.60;1.25;;;15.90;90.20;;;;;;5015271;28;20052;-80
2022/06/02 08:51:40;;;;;;;2.88;1.05;;;15.90;89.60;;;;;;5031628;28;20057;-80
2022/06/02 08:54:34;;;;;;;3.22;1.05;;;15.90;88.70;;;;;;5033485;28;20025;-79
2022/06/02 08:57:38;;;;;;;3.05;1.27;;;16.00;87.90;;;;;;5015193;28;20025;-80
2022/06/02 09:00:18;;;;;;;3.85;1.10;;;16.10;87.00;;;;;;5032960;28;20083;-80
2022/06/02 09:03:02;;;;;;;2.70;1.10;;;16.20;86.30;;;;;;5031396;28;20120;-80
2022/06/02 09:05:31;;;;;;;2.28;0.80;;;16.30;85.60;;;;;;5032886;28;20018;-80
2022/06/02 09:08:34;;;;;;;2.88;0.80;;;16.40;84.60;;;;;;5031572;28;20053;-80
2022/06/02 09:11:24;;;;;;;3.33;0.95;;;16.50;83.50;;;;;;5014967;28;20036;-80
2022/06/02 09:14:14;;;;;;;2.95;0.80;;;16.60;83.30;;;;;;5014932;28;20408;-80
2022/06/02 09:17:19;;;;;;;2.65;1.08;;;16.70;82.70;;;;;;5014730;28;20029;-80
2022/06/02 09:20:20;;;;;;;1.60;0.63;;;16.90;81.80;;;;;;4994366;28;20041;-81
2022/06/02 09:23:09;;;;;;;2.47;1.10;;;17.00;81.80;;;;;;4955543;28;20410;-80
2022/06/02 09:25:50;;;;;;;3.25;1.70;;;17.10;80.90;;;;;;5012160;28;20033;-81
2022/06/02 09:28:31;;;;;;;4.60;1.95;;;17.30;80.00;;;;;;5014693;28;20028;-80
2022/06/02 09:31:12;;;;;;;3.90;1.95;;;17.30;79.60;;;;;;5015251;28;20104;-80
2022/06/02 09:33:43;;;;;;;3.35;1.35;;;17.40;79.10;;;;;;5014864;28;20064;-80
2022/06/02 09:36:19;;;;;;;3.70;1.55;;;17.50;78.60;;;;;;5014876;28;20084;-80
2022/06/02 09:39:24;;;;;;;2.70;1.23;;;17.50;77.80;;;;;;5014359;28;20025;-80
2022/06/02 09:42:08;;;;;;;3.63;1.10;;;17.50;76.90;;;;;;5032382;28;20083;-81
2022/06/02 09:45:00;;;;;;;;;;;17.50;76.40;;;;;;5015148;28;20075;-80
2022/06/02 09:47:40;;;;;;;2.67;0.98;;;17.50;76.30;;;;;;5014314;28;19955;-79
2022/06/02 09:50:15;;;;;;;3.35;1.27;;;17.60;76.60;;;;;;5014830;28;20079;-80
2022/06/02 09:53:02;;;;;;;3.40;1.08;;;17.60;75.80;;;;;;5015469;28;20079;-80
2022/06/02 09:55:34;;;;;;;5.60;1.23;;;17.60;74.80;;;;;;5018169;28;20061;-80
2022/06/02 09:58:09;;;;;;;2.55;1.45;;;17.70;74.30;;;;;;5018461;28;20113;-80
2022/06/02 10:00:53;;;;;;;2.05;1.10;;;17.80;73.50;;;;;;5018180;28;20488;-81
2022/06/02 10:03:38;;;;;;;;;;;17.90;73.10;;;;;;5036153;28;20024;-81
2022/06/02 10:06:41;;;;;;;2.47;1.02;;;18.00;72.60;;;;;;5017687;28;19908;-81
2022/06/02 10:09:27;;;;;;;2.38;0.93;;;18.00;72.60;;;;;;5017728;28;20027;-82
2022/06/02 10:14:56;;;;;;;4.18;0.80;;;18.20;71.20;;;;;;5035998;28;20075;-80
2022/06/02 10:17:49;;;;;;;1.83;0.60;;;18.30;71.30;;;;;;5035514;28;20022;-80
2022/06/02 10:20:33;;;;;;;4.53;1.38;;;18.40;70.50;;;;;;5035212;28;20049;-81
2022/06/02 10:23:22;;;;;;;3.78;1.35;;;18.50;70.20;;;;;;5035420;28;20018;-81
2022/06/02 10:26:14;;;;;;;2.65;1.33;;;18.60;70.80;;;;;;5017765;28;20125;-80
2022/06/02 10:28:58;;;;;;;3.63;1.48;;;18.70;69.40;;;;;;5033338;28;20029;-82
2022/06/02 10:31:55;;;;;;;2.95;1.10;;;18.80;69.40;;;;;;5017119;28;20488;-81
2022/06/02 10:34:46;;;;;;;2.63;0.90;;;18.90;68.70;;;;;;5017056;28;20021;-81
2022/06/02 10:37:38;;;;;;;3.47;1.65;;;19.10;68.30;;;;;;5017269;28;20050;-81
2022/06/02 10:40:35;;;;;;;2.75;1.30;;;19.10;67.50;;;;;;5034844;28;20044;-80
2022/06/02 10:43:20;;;;;;;3.00;1.20;;;19.20;67.20;;;;;;5035116;28;20045;-80
2022/06/02 10:46:10;;;;;;;2.38;0.90;;;19.30;67.20;;;;;;5017519;28;20014;-81
2022/06/02 10:49:02;;;;;;;2.25;1.20;;;19.50;66.20;;;;;;5016957;28;20037;-80
2022/06/02 10:51:46;;;;;;;2.42;0.80;;;19.60;66.20;;;;;;5014026;28;20026;-81
2022/06/02 10:54:43;;;;;;;2.42;0.65;;;19.90;65.70;;;;;;5016699;28;20021;-80
2022/06/02 10:57:37;;;;;;;1.70;0.60;;;20.10;65.10;;;;;;5021895;28;20037;-80
2022/06/02 11:00:06;;;;;;;;;;;20.40;63.60;;;;;;5034931;28;20100;-81
2022/06/02 11:03:22;;;;;;;0.80;0.40;;;20.70;64.10;;;;;;5012367;28;19905;-81
2022/06/02 11:06:28;;;;;;;2.80;0.35;;;21.00;63.40;;;;;;4973334;28;20033;-81
2022/06/02 11:09:32;;;;;;;2.47;0.40;;;21.20;61.70;;;;;;4997239;28;20473;-81
2022/06/02 11:12:14;;;;;;;0.85;0.30;;;21.50;61.00;;;;;;5013466;28;20033;-81
2022/06/02 11:15:05;;;;;;;1.35;0.40;;;21.80;61.10;;;;;;4997131;28;20044;-80
2022/06/02 11:17:54;;;;;;;1.90;0.60;;;22.10;60.10;;;;;;5013808;28;20037;-80
2022/06/02 11:20:39;;;;;;;1.25;0.40;;;22.40;58.70;;;;;;5013172;28;20041;-81
2022/06/02 11:23:31;;;;;;;1.02;0.40;;;22.60;58.50;;;;;;5013080;28;20450;-81
2022/06/02 11:26:22;;;;;;;2.10;0.60;;;22.90;57.10;;;;;;4997106;28;20038;-81
2022/06/02 11:29:10;;;;;;;2.20;0.40;;;23.20;56.90;;;;;;5013031;28;20033;-80
2022/06/02 11:31:52;;;;;;;2.35;0.40;;;23.40;55.70;;;;;;5013061;28;20370;-80
2022/06/02 11:34:29;;;;;;;2.63;0.50;;;23.60;55.70;;;;;;4996768;28;20025;-80
2022/06/02 11:37:22;;;;;;;2.53;0.40;;;23.90;54.80;;;;;;5014255;28;20370;-80
2022/06/02 11:40:02;;;;;;;1.08;0.40;;;24.20;54.00;;;;;;5014259;28;20413;-81
2022/06/02 11:42:44;;;;;;;1.50;0.40;;;24.30;52.90;;;;;;5014268;28;20393;-81
2022/06/02 11:45:32;;;;;;;0.73;0.40;;;24.40;52.60;;;;;;4996574;28;20018;-82
2022/06/02 11:48:29;;;;;;;0.95;0.32;;;24.30;52.20;;;;;;4996333;28;20033;-81
2022/06/02 11:51:33;;;;;;;1.40;0.40;;;24.40;51.80;;;;;;5014152;28;20110;-81
2022/06/02 11:54:30;;;;;;;3.05;0.32;;;24.60;51.30;;;;;;5012636;28;20520;-81
2022/06/02 11:57:33;;;;;;;1.52;0.40;;;24.80;50.90;;;;;;4996388;28;20457;-81
2022/06/02 12:00:16;;;;;;;1.73;0.40;;;24.90;50.20;;;;;;5013545;28;20033;-81
2022/06/02 12:02:45;;;;;;;0.70;0.30;;;24.90;50.50;;;;;;5013891;28;20022;-81
2022/06/02 12:05:30;;;;;;;1.23;0.47;;;24.90;49.90;;;;;;5012594;28;20132;-81
2022/06/02 12:08:17;;;;;;;1.50;0.40;;;24.80;49.30;;;;;;5032545;28;20081;-80
2022/06/02 12:11:22;;;;;;;1.58;0.50;;;24.60;48.80;;;;;;5015537;28;20061;-81
2022/06/02 12:14:24;;;;;;;1.48;0.47;;;24.60;48.70;;;;;;5033651;28;20097;-81
2022/06/02 12:17:06;;;;;;;3.95;0.60;;;24.50;48.60;;;;;;5032857;28;20079;-80
2022/06/02 12:20:09;;;;;;;1.55;0.30;;;24.40;48.70;;;;;;5032964;28;20100;-80
2022/06/02 12:22:53;;;;;;;1.00;0.35;;;24.40;48.10;;;;;;5033060;28;20095;-85
2022/06/02 12:25:33;;;;;;;;;;;24.40;48.20;;;;;;5033644;28;20029;-81
2022/06/02 12:28:36;;;;;;;2.20;0.50;;;24.40;48.20;;;;;;5033185;28;19901;-81
2022/06/02 12:31:39;;;;;;;1.50;0.40;;;24.30;48.20;;;;;;5015409;28;20028;-81
2022/06/02 12:34:23;;;;;;;2.35;0.70;;;24.40;48.40;;;;;;5033246;28;20095;-81
2022/06/02 12:37:03;;;;;;;1.20;0.40;;;24.30;48.20;;;;;;5015407;28;20021;-81
2022/06/02 12:39:45;;;;;;;1.40;0.32;;;24.20;48.00;;;;;;5015358;28;20106;-81
2022/06/02 12:42:11;;;;;;;0.95;0.30;;;24.10;48.10;;;;;;5032505;28;20080;-80
2022/06/02 12:44:45;;;;;;;3.47;0.40;;;24.30;48.10;;;;;;5015277;28;20495;-81
2022/06/02 12:47:34;;;;;;;1.48;0.50;;;24.70;47.90;;;;;;5033122;28;20475;-80
2022/06/02 12:50:15;;;;;;;1.52;0.40;;;25.10;46.50;;;;;;5015209;28;20033;-81
2022/06/02 12:52:59;;;;;;;1.08;0.40;;;25.50;46.50;;;;;;5015106;28;20449;-81
2022/06/02 12:55:27;;;;;;;1.10;0.30;;;25.90;45.50;;;;;;5015492;28;20358;-80
2022/06/02 12:57:53;;;;;;;0.95;0.38;;;26.20;45.80;;;;;;5031802;28;20457;-81
2022/06/02 13:00:45;;;;;;;1.30;0.40;;;26.50;45.20;;;;;;5014922;28;20124;-81
2022/06/02 13:03:49;;;;;;;0.90;0.30;;;26.90;44.80;;;;;;4992039;28;20370;-81
2022/06/02 13:06:28;;;;;;;1.08;0.40;;;27.30;44.40;;;;;;5016142;28;20454;-81
2022/06/02 13:09:12;;;;;;;2.08;0.32;;;27.70;44.10;;;;;;5015192;28;20027;-82
2022/06/02 13:11:56;;;;;;;0.70;0.32;;;27.90;44.10;;;;;;5032760;28;20017;-83
2022/06/02 13:14:46;;;;;;;1.27;0.30;;;28.10;42.80;;;;;;5015324;28;20032;-82
2022/06/02 13:17:25;;;;;;;0.80;0.30;;;28.30;42.40;;;;;;5015085;28;20025;-80
2022/06/02 13:20:09;;;;;;;0.60;0.25;;;28.60;42.20;;;;;;5014835;28;20045;-81
2022/06/02 13:22:40;;;;;;;1.55;0.30;;;28.90;41.80;;;;;;5015183;28;20013;-81
2022/06/02 13:25:43;;;;;;;1.27;0.30;;;29.20;42.20;;;;;;5033000;28;20029;-82
2022/06/02 13:28:32;;;;;;;0.80;0.30;;;29.20;41.40;;;;;;5016668;28;20033;-82
2022/06/02 13:31:10;;;;;;;1.30;0.30;;;29.20;41.50;;;;;;5018915;28;20025;-82
2022/06/02 13:34:13;;;;;;;1.15;0.30;;;29.30;41.60;;;;;;5018532;28;20031;-82
2022/06/02 13:37:01;;;;;;;1.00;0.40;;;29.40;40.90;;;;;;5018734;28;20072;-82
2022/06/02 13:39:47;;;;;;;0.88;0.35;;;29.30;40.80;;;;;;5036427;28;20021;-81
2022/06/02 13:42:48;;;;;;;1.15;0.32;;;29.30;41.20;;;;;;5018513;28;20376;-81
2022/06/02 13:45:38;;;;;;;1.23;0.32;;;29.40;40.60;;;;;;5018460;28;20064;-82
2022/06/02 13:48:48;;;;;;;0.93;0.40;;;29.30;40.40;;;;;;5018363;28;20025;-82
2022/06/02 13:51:51;;;;;;;0.63;0.28;;;29.40;40.10;;;;;;5018566;28;20461;-83
2022/06/02 13:57:41;;;;;;;2.03;0.40;;;30.00;40.50;;;;;;4948332;28;20128;-82
2022/06/02 14:00:20;;;;;;;2.40;0.40;;;30.20;40.20;;;;;;5018239;28;20026;-82
2022/06/02 14:03:09;;;;;;;2.97;0.40;;;30.20;40.40;;;;;;5018524;28;20021;-83
2022/06/02 14:05:49;;;;;;;1.50;0.30;;;30.00;40.00;;;;;;5017966;28;20043;-81
2022/06/02 14:08:17;;;;;;;1.45;0.28;;;29.70;39.90;;;;;;5018157;28;20021;-82
2022/06/02 14:10:49;;;;;;;0.90;0.30;;;29.50;40.00;;;;;;5018101;28;20026;-81
2022/06/02 14:13:33;;;;;;;1.88;0.30;;;29.30;39.70;;;;;;5017981;28;20028;-81
2022/06/02 14:16:27;;;;;;;1.45;0.30;;;29.10;39.40;;;;;;5017981;28;20026;-80
2022/06/02 14:19:20;;;;;;;0.73;0.25;;;29.00;39.50;;;;;;5009188;28;20043;-81
2022/06/02 14:22:01;;;;;;;1.02;0.40;;;29.00;39.70;;;;;;4998092;28;20049;-80
2022/06/02 14:24:45;;;;;;;0.40;0.30;;;29.10;39.80;;;;;;5005673;28;20073;-81
2022/06/02 14:27:33;;;;;;;2.08;0.50;;;29.40;39.40;;;;;;4996680;28;20017;-83
2022/06/02 14:30:23;;;;;;;1.90;0.35;;;29.70;39.10;;;;;;4996773;28;20029;-82